createdAt,value
2022-10-21T00:01:02.310Z,27.30
2022-10-21T00:03:29.987Z,27.37
2022-10-21T00:05:57.666Z,27.13
2022-10-21T00:08:25.916Z,26.63
2022-10-21T00:11:02.826Z,25.13
2022-10-21T00:13:32.640Z,26.07
2022-10-21T00:16:26.448Z,26.73
2022-10-21T00:18:54.065Z,27.23
2022-10-21T00:21:22.684Z,25.83
2022-10-21T00:23:53.058Z,26.10
2022-10-21T00:26:21.816Z,25.30
2022-10-21T00:28:49.550Z,26.90
2022-10-21T00:31:17.133Z,27.63
2022-10-21T00:33:44.775Z,26.33
2022-10-21T00:36:21.449Z,25.30
2022-10-21T00:38:49.197Z,25.17
2022-10-21T00:41:19.274Z,26.13
2022-10-21T00:44:06.292Z,23.50
2022-10-21T00:46:56.306Z,23.37
2022-10-21T00:49:44.454Z,24.77
2022-10-21T00:52:18.906Z,24.67
2022-10-21T00:54:49.014Z,25.90
2022-10-21T00:57:18.767Z,26.17
2022-10-21T00:59:51.708Z,26.27
2022-10-21T01:02:19.716Z,25.13
2022-10-21T01:04:51.897Z,25.87
2022-10-21T01:07:19.860Z,24.63
2022-10-21T01:09:47.541Z,26.37
2022-10-21T01:12:48.468Z,24.90
2022-10-21T01:15:25.252Z,24.60
2022-10-21T01:18:16.257Z,24.89
2022-10-21T01:21:10.156Z,25.53
2022-10-21T01:24:12.033Z,25.60
2022-10-21T01:26:58.099Z,26.93
2022-10-21T01:29:47.241Z,28.33
2022-10-21T01:32:40.331Z,28.60
2022-10-21T01:35:28.488Z,28.40
2022-10-21T01:38:31.940Z,28.43
2022-10-21T01:41:09.342Z,28.10
2022-10-21T01:44:00.687Z,28.97
2022-10-21T01:46:37.980Z,29.57
2022-10-21T01:49:22.453Z,29.40
2022-10-21T01:51:51.753Z,30.80
2022-10-21T01:54:38.441Z,30.47
2022-10-21T01:57:07.220Z,28.47
2022-10-21T01:59:35.824Z,28.70
2022-10-21T02:02:05.595Z,29.90
2022-10-21T02:04:35.535Z,30.44
2022-10-21T02:07:04.761Z,33.70
2022-10-21T02:12:02.564Z,35.47
2022-10-21T02:14:51.953Z,36.67
2022-10-21T02:17:22.266Z,35.67
2022-10-21T02:19:53.667Z,36.90
2022-10-21T02:22:25.370Z,38.57
2022-10-21T02:25:01.554Z,35.10
2022-10-21T02:27:29.264Z,36.43
2022-10-21T02:29:59.852Z,36.70
2022-10-21T02:32:42.512Z,36.97
2022-10-21T02:35:27.534Z,35.70
2022-10-21T02:38:27.632Z,36.40
2022-10-21T02:41:04.331Z,38.53
2022-10-21T02:43:36.981Z,38.57
2022-10-21T02:46:12.917Z,35.77
2022-10-21T02:48:44.867Z,36.57
2022-10-21T02:51:12.635Z,35.90
2022-10-21T02:53:41.303Z,36.23
2022-10-21T02:56:09.276Z,38.07
2022-10-21T02:58:37.471Z,32.67
2022-10-21T03:01:05.221Z,33.40
2022-10-21T03:03:32.855Z,35.93
2022-10-21T03:06:00.469Z,35.23
2022-10-21T03:08:28.223Z,35.87
2022-10-21T03:10:55.919Z,36.50
2022-10-21T03:13:23.557Z,39.50
2022-10-21T03:15:51.636Z,38.70
2022-10-21T03:18:22.393Z,38.63
2022-10-21T03:20:51.086Z,39.73
2022-10-21T03:23:19.698Z,40.67
2022-10-21T03:25:47.921Z,40.27
2022-10-21T03:28:15.761Z,42.30
2022-10-21T03:30:43.492Z,41.43
2022-10-21T03:33:11.076Z,41.57
2022-10-21T03:35:38.754Z,42.40
2022-10-21T03:38:06.355Z,40.57
2022-10-21T03:40:34.791Z,40.93
2022-10-21T03:43:02.428Z,37.17
2022-10-21T03:45:30.095Z,36.67
2022-10-21T03:47:59.307Z,37.53
2022-10-21T03:50:26.995Z,35.27
2022-10-21T03:52:59.217Z,37.77
2022-10-21T03:55:27.122Z,37.87
2022-10-21T03:57:54.757Z,37.87
2022-10-21T04:00:23.219Z,35.43
2022-10-21T04:02:51.434Z,37.30
2022-10-21T04:05:19.031Z,35.53
2022-10-21T04:07:50.663Z,36.13
2022-10-21T04:10:20.978Z,35.30
2022-10-21T04:12:48.624Z,35.40
2022-10-21T04:15:16.511Z,32.97
2022-10-21T04:17:46.874Z,32.47
2022-10-21T04:20:14.536Z,32.27
2022-10-21T04:22:42.235Z,29.80
2022-10-21T04:25:11.922Z,28.83
2022-10-21T04:27:39.614Z,28.60
2022-10-21T04:30:08.005Z,28.47
2022-10-21T04:32:38.012Z,27.90
2022-10-21T04:35:06.290Z,25.13
2022-10-21T04:37:33.981Z,25.80
2022-10-21T04:40:04.088Z,26.00
2022-10-21T04:42:31.691Z,24.50
2022-10-21T04:44:59.487Z,24.57
2022-10-21T04:47:27.153Z,24.87
2022-10-21T04:49:54.804Z,24.67
2022-10-21T04:52:22.487Z,25.97
2022-10-21T04:54:50.178Z,26.40
2022-10-21T04:57:17.816Z,26.77
2022-10-21T04:59:45.467Z,27.33
2022-10-21T05:02:13.942Z,27.70
2022-10-21T05:04:41.583Z,29.37
2022-10-21T05:07:11.502Z,28.67
2022-10-21T05:09:39.098Z,26.37
2022-10-21T05:12:06.726Z,28.93
2022-10-21T05:14:34.346Z,26.63
2022-10-21T05:17:01.945Z,26.73
2022-10-21T05:19:31.437Z,27.70
2022-10-21T05:21:59.559Z,26.67
2022-10-21T05:24:27.334Z,29.57
2022-10-21T05:26:54.958Z,30.93
2022-10-21T05:29:22.520Z,32.03
2022-10-21T05:31:50.448Z,31.17
2022-10-21T05:34:18.149Z,32.07
2022-10-21T05:36:48.268Z,33.13
2022-10-21T05:39:16.253Z,32.90
2022-10-21T05:41:46.986Z,33.00
2022-10-21T05:44:15.905Z,34.67
2022-10-21T05:46:44.072Z,35.00
2022-10-21T05:49:12.840Z,33.43
2022-10-21T05:51:40.629Z,34.67
2022-10-21T05:54:08.277Z,34.00
2022-10-21T05:56:38.148Z,34.30
2022-10-21T05:59:07.945Z,35.47
2022-10-21T06:01:40.978Z,34.43
2022-10-21T06:04:08.605Z,35.80
2022-10-21T06:06:36.261Z,34.00
2022-10-21T06:09:03.965Z,36.47
2022-10-21T06:11:32.152Z,36.93
2022-10-21T06:14:02.875Z,37.63
2022-10-21T06:16:33.083Z,35.60
2022-10-21T06:19:01.410Z,37.00
2022-10-21T06:21:29.081Z,33.97
2022-10-21T06:23:56.783Z,32.77
2022-10-21T06:26:27.633Z,34.57
2022-10-21T06:28:55.243Z,32.93
2022-10-21T06:31:23.054Z,32.93
2022-10-21T06:33:50.663Z,32.63
2022-10-21T06:36:18.275Z,29.70
2022-10-21T06:38:47.253Z,26.80
2022-10-21T06:41:15.392Z,27.47
2022-10-21T06:43:43.238Z,27.10
2022-10-21T06:46:13.869Z,27.47
2022-10-21T06:48:41.718Z,27.47
2022-10-21T06:51:16.128Z,25.70
2022-10-21T06:53:44.475Z,25.87
2022-10-21T06:56:16.454Z,26.13
2022-10-21T06:58:49.069Z,26.30
2022-10-21T07:01:34.427Z,25.67
2022-10-21T07:04:04.409Z,22.43
2022-10-21T07:09:01.012Z,24.33
2022-10-21T07:11:28.791Z,23.87
2022-10-21T07:13:56.411Z,18.83
2022-10-21T07:16:26.813Z,19.07
2022-10-21T07:18:55.286Z,15.63
2022-10-21T07:21:25.420Z,16.27
2022-10-21T07:23:56.622Z,10.40
2022-10-21T07:26:30.033Z,11.40
2022-10-21T07:57:06.509Z,11.77
2022-10-21T07:59:34.216Z,12.40
2022-10-21T08:02:01.807Z,10.43
2022-10-21T08:04:33.196Z,9.63
2022-10-21T08:07:00.748Z,10.67
2022-10-21T08:09:28.563Z,10.73
2022-10-21T08:11:57.058Z,10.83
2022-10-21T08:14:24.808Z,12.70
2022-10-21T08:16:54.053Z,10.23
2022-10-21T08:19:27.311Z,10.53
2022-10-21T08:21:55.269Z,10.50
2022-10-21T08:24:23.497Z,8.43
2022-10-21T08:26:51.734Z,9.43
2022-10-21T08:29:19.290Z,9.20
2022-10-21T08:31:46.877Z,9.27
2022-10-21T08:34:14.462Z,8.83
2022-10-21T08:36:42.667Z,8.93
2022-10-21T08:39:10.264Z,8.13
2022-10-21T08:41:56.503Z,7.23
2022-10-21T08:44:32.926Z,7.77
2022-10-21T08:47:21.850Z,7.67
2022-10-21T08:49:58.400Z,6.73
2022-10-21T08:52:49.437Z,7.87
2022-10-21T08:55:33.182Z,7.37
2022-10-21T08:58:01.639Z,8.10
2022-10-21T09:00:37.262Z,9.43
2022-10-21T09:03:27.233Z,9.23
2022-10-21T09:06:12.009Z,9.33
2022-10-21T09:09:09.832Z,9.70
2022-10-21T09:11:48.860Z,9.23
2022-10-21T09:14:25.650Z,8.10
2022-10-21T09:17:26.712Z,8.80
2022-10-21T09:20:19.051Z,8.53
2022-10-21T09:23:11.693Z,7.90
2022-10-21T09:26:01.777Z,7.97
2022-10-21T09:28:30.829Z,7.20
2022-10-21T09:31:02.368Z,6.67
2022-10-21T09:33:34.702Z,7.57
2022-10-21T09:36:08.255Z,6.87
2022-10-21T09:38:42.216Z,7.10
2022-10-21T09:41:17.715Z,7.33
2022-10-21T09:43:45.703Z,7.50
2022-10-21T09:46:14.397Z,7.80
2022-10-21T09:51:42.695Z,8.50
2022-10-21T09:54:16.616Z,7.07
2022-10-21T09:56:50.226Z,8.00
2022-10-21T09:59:19.450Z,6.80
2022-10-21T10:01:48.659Z,6.77
2022-10-21T10:04:34.637Z,6.40
2022-10-21T10:07:22.010Z,6.20
2022-10-21T10:09:49.655Z,5.90
2022-10-21T10:12:23.499Z,10.20
2022-10-21T10:14:51.118Z,6.47
2022-10-21T10:17:29.012Z,6.47
2022-10-21T10:20:10.765Z,6.53
2022-10-21T10:22:47.912Z,6.40
2022-10-21T10:25:16.868Z,6.37
2022-10-21T10:27:48.535Z,6.40
2022-10-21T10:30:17.236Z,6.97
2022-10-21T10:32:46.228Z,7.07
2022-10-21T10:35:34.626Z,5.70
2022-10-21T10:38:05.906Z,5.30
2022-10-21T10:40:39.665Z,5.53
2022-10-21T10:43:26.132Z,6.43
2022-10-21T10:46:00.745Z,6.87
2022-10-21T10:48:40.660Z,7.20
2022-10-21T10:51:24.071Z,7.23
2022-10-21T10:54:06.694Z,8.13
2022-10-21T10:56:50.586Z,8.60
2022-10-21T10:59:25.135Z,8.33
2022-10-21T11:01:59.864Z,9.53
2022-10-21T11:05:08.064Z,12.20
2022-10-21T11:08:04.665Z,9.27
2022-10-21T11:10:34.999Z,7.70
2022-10-21T11:13:18.178Z,8.10
2022-10-21T11:15:59.319Z,7.20
2022-10-21T11:18:52.468Z,6.90
2022-10-21T11:21:43.718Z,8.00
2022-10-21T11:24:16.975Z,7.47
2022-10-21T11:27:01.418Z,6.53
2022-10-21T11:29:57.129Z,6.10
2022-10-21T11:32:54.145Z,5.72
2022-10-21T11:35:36.714Z,5.50
2022-10-21T11:38:27.951Z,4.70
2022-10-21T11:40:58.556Z,4.60
2022-10-21T11:43:46.520Z,4.22
2022-10-21T11:46:18.529Z,4.07
2022-10-21T11:49:23.008Z,3.88
2022-10-21T11:52:08.924Z,3.05
2022-10-21T11:55:08.617Z,4.45
2022-10-21T11:57:49.744Z,3.90
2022-10-21T12:00:24.562Z,4.38
2022-10-21T12:03:17.318Z,4.03
2022-10-21T12:05:55.538Z,3.45
2022-10-21T12:08:54.985Z,3.25
2022-10-21T12:11:45.429Z,2.92
2022-10-21T12:14:36.736Z,2.42
2022-10-21T12:17:13.381Z,2.58
2022-10-21T12:19:41.555Z,2.40
2022-10-21T12:22:11.553Z,2.10
2022-10-21T12:24:56.409Z,2.30
2022-10-21T12:27:48.292Z,2.30
2022-10-21T12:30:39.287Z,2.30
2022-10-21T12:33:16.422Z,2.40
2022-10-21T12:35:47.040Z,3.15
2022-10-21T12:38:53.918Z,1.80
2022-10-21T12:41:24.718Z,1.65
2022-10-21T12:44:01.495Z,1.73
2022-10-21T12:46:45.389Z,1.50
2022-10-21T12:49:19.355Z,1.45
2022-10-21T12:52:01.090Z,1.08
2022-10-21T12:54:42.001Z,1.10
2022-10-21T12:57:20.540Z,0.93
2022-10-21T12:59:48.367Z,1.13
2022-10-21T13:02:57.125Z,0.90
2022-10-21T13:05:40.382Z,1.25
2022-10-21T13:08:19.825Z,1.55
2022-10-21T13:11:05.591Z,1.35
2022-10-21T13:13:36.217Z,1.27
2022-10-21T13:16:24.033Z,1.50
2022-10-21T13:19:24.207Z,1.70
2022-10-21T13:22:01.731Z,1.20
2022-10-21T13:24:34.028Z,0.90
2022-10-21T13:27:25.473Z,1.08
2022-10-21T13:29:54.240Z,1.23
2022-10-21T13:32:28.679Z,1.38
2022-10-21T13:35:20.383Z,1.35
2022-10-21T13:38:21.760Z,1.50
2022-10-21T13:41:21.712Z,1.52
2022-10-21T13:43:56.280Z,1.00
2022-10-21T13:46:28.714Z,1.35
2022-10-21T13:48:59.587Z,1.50
2022-10-21T13:51:47.427Z,1.79
2022-10-21T13:54:16.354Z,1.35
2022-10-21T13:56:43.974Z,1.45
2022-10-21T13:59:29.848Z,1.35
2022-10-21T14:01:58.127Z,1.80
2022-10-21T14:04:31.080Z,2.10
2022-10-21T14:07:05.914Z,1.55
2022-10-21T14:09:44.651Z,1.50
2022-10-21T14:12:24.044Z,1.13
2022-10-21T14:14:52.967Z,1.42
2022-10-21T14:17:24.357Z,1.25
2022-10-21T14:19:57.862Z,0.70
2022-10-21T14:22:32.778Z,1.15
2022-10-21T14:25:03.754Z,1.38
2022-10-21T14:27:34.124Z,1.58
2022-10-21T14:30:04.677Z,1.70
2022-10-21T14:32:32.766Z,3.50
2022-10-21T14:35:21.733Z,1.50
2022-10-21T14:37:52.298Z,1.50
2022-10-21T14:40:31.768Z,1.50
2022-10-21T14:43:11.780Z,2.30
2022-10-21T14:45:46.826Z,1.40
2022-10-21T14:48:14.471Z,1.63
2022-10-21T14:50:59.756Z,2.00
2022-10-21T14:53:33.158Z,2.05
2022-10-21T14:56:04.160Z,1.67
2022-10-21T14:58:40.181Z,1.83
2022-10-21T15:01:12.426Z,1.73
2022-10-21T15:03:44.516Z,1.75
2022-10-21T15:06:26.235Z,2.15
2022-10-21T15:08:56.829Z,1.77
2022-10-21T15:11:28.803Z,1.95
2022-10-21T15:13:58.034Z,1.50
2022-10-21T15:16:28.575Z,1.70
2022-10-21T15:18:57.493Z,1.70
2022-10-21T15:21:28.149Z,2.10
2022-10-21T15:24:00.773Z,3.38
2022-10-21T15:26:39.073Z,2.90
2022-10-21T15:29:14.458Z,2.33
2022-10-21T15:31:42.739Z,2.10
2022-10-21T15:34:14.499Z,5.43
2022-10-21T15:36:42.939Z,2.55
2022-10-21T15:39:11.175Z,2.00
2022-10-21T15:41:39.390Z,2.00
2022-10-21T15:44:28.110Z,2.15
2022-10-21T15:47:00.873Z,2.33
2022-10-21T15:49:34.218Z,3.42
2022-10-21T15:52:01.968Z,4.47
2022-10-21T15:54:29.689Z,5.22
2022-10-21T15:57:01.637Z,6.10
2022-10-21T15:59:32.207Z,7.50
2022-10-21T16:02:00.651Z,6.45
2022-10-21T16:04:28.541Z,5.90
2022-10-21T16:06:56.812Z,4.20
2022-10-21T16:09:29.514Z,2.80
2022-10-21T16:12:00.701Z,3.35
2022-10-21T16:14:30.748Z,3.50
2022-10-21T16:16:59.186Z,2.97
2022-10-21T16:19:27.244Z,3.30
2022-10-21T16:21:55.343Z,3.88
2022-10-21T16:24:22.988Z,3.70
2022-10-21T16:26:50.612Z,3.80
2022-10-21T16:29:21.602Z,3.60
2022-10-21T16:31:49.615Z,5.93
2022-10-21T16:34:17.476Z,4.70
2022-10-21T16:36:45.257Z,2.70
2022-10-21T16:39:18.550Z,3.23
2022-10-21T16:41:46.108Z,2.77
2022-10-21T16:44:13.902Z,3.50
2022-10-21T16:46:59.390Z,3.13
2022-10-21T16:49:30.512Z,2.97
2022-10-21T16:52:00.293Z,3.70
2022-10-21T16:54:27.960Z,3.30
2022-10-21T16:56:56.733Z,5.57
2022-10-21T16:59:27.372Z,7.50
2022-10-21T17:01:57.400Z,11.00
2022-10-21T17:04:25.551Z,5.73
2022-10-21T17:06:55.172Z,5.80
2022-10-21T17:09:24.978Z,6.67
2022-10-21T17:11:52.576Z,6.80
2022-10-21T17:14:21.880Z,6.63
2022-10-21T17:16:49.523Z,5.13
2022-10-21T17:19:17.160Z,5.40
2022-10-21T17:21:53.644Z,5.30
2022-10-21T17:24:21.183Z,5.70
2022-10-21T17:26:48.811Z,6.40
2022-10-21T17:29:16.480Z,6.33
2022-10-21T17:31:44.106Z,6.73
2022-10-21T17:34:24.469Z,6.17
2022-10-21T17:36:52.052Z,6.67
2022-10-21T17:39:19.688Z,7.57
2022-10-21T17:41:50.081Z,8.83
2022-10-21T17:44:18.118Z,7.30
2022-10-21T17:46:47.554Z,9.60
2022-10-21T17:49:18.369Z,5.37
2022-10-21T17:51:45.982Z,4.53
2022-10-21T17:54:13.947Z,4.90
2022-10-21T17:56:41.763Z,5.37
2022-10-21T17:59:09.551Z,9.57
2022-10-21T18:01:37.457Z,6.37
2022-10-21T18:04:05.126Z,5.70
2022-10-21T18:06:32.826Z,7.33
2022-10-21T18:09:00.451Z,6.40
2022-10-21T18:11:28.026Z,5.07
2022-10-21T18:13:56.231Z,5.00
2022-10-21T18:16:24.480Z,5.60
2022-10-21T18:18:56.131Z,5.70
2022-10-21T18:21:26.296Z,5.43
2022-10-21T18:23:54.438Z,5.70
2022-10-21T18:26:25.677Z,6.57
2022-10-21T18:28:57.075Z,6.33
2022-10-21T18:31:27.992Z,5.87
2022-10-21T18:33:56.799Z,6.10
2022-10-21T18:36:25.036Z,5.37
2022-10-21T18:38:53.528Z,5.67
2022-10-21T18:41:21.671Z,6.03
2022-10-21T18:43:51.585Z,6.50
2022-10-21T18:46:19.824Z,6.50
2022-10-21T18:48:47.628Z,6.13
2022-10-21T18:51:16.984Z,6.30
2022-10-21T18:53:48.518Z,6.00
2022-10-21T18:56:18.521Z,5.90
2022-10-21T18:58:46.110Z,6.77
2022-10-21T19:01:17.122Z,8.03
2022-10-21T19:03:45.388Z,8.70
2022-10-21T19:06:33.165Z,6.73
2022-10-21T19:09:02.719Z,7.20
2022-10-21T19:11:30.646Z,7.40
2022-10-21T19:13:58.391Z,8.30
2022-10-21T19:16:26.264Z,8.07
2022-10-21T19:18:54.748Z,7.20
2022-10-21T19:21:23.776Z,6.50
2022-10-21T19:23:51.831Z,6.63
2022-10-21T19:26:22.471Z,7.07
2022-10-21T19:28:51.236Z,7.77
2022-10-21T19:31:21.324Z,8.90
2022-10-21T19:33:48.966Z,8.90
2022-10-21T19:36:16.611Z,9.53
2022-10-21T19:38:44.993Z,9.23
2022-10-21T19:41:16.669Z,8.60
2022-10-21T19:43:44.366Z,9.27
2022-10-21T19:46:19.933Z,9.10
2022-10-21T19:48:50.301Z,8.40
2022-10-21T19:51:20.440Z,7.83
2022-10-21T19:53:49.414Z,8.30
2022-10-21T19:56:20.977Z,8.37
2022-10-21T19:58:51.693Z,8.33
2022-10-21T20:01:22.841Z,7.30
2022-10-21T20:03:51.694Z,7.53
2022-10-21T20:06:25.678Z,6.57
2022-10-21T20:08:55.323Z,6.43
2022-10-21T20:11:25.445Z,6.20
2022-10-21T20:13:53.228Z,6.67
2022-10-21T20:16:35.973Z,7.37
2022-10-21T20:19:05.934Z,8.17
2022-10-21T20:21:34.764Z,7.17
2022-10-21T20:24:02.770Z,7.20
2022-10-21T20:26:30.492Z,7.87
2022-10-21T20:29:00.538Z,7.30
2022-10-21T20:31:28.884Z,7.53
2022-10-21T20:33:56.562Z,7.27
2022-10-21T20:36:30.405Z,7.37
2022-10-21T20:38:59.269Z,6.20
2022-10-21T20:41:33.513Z,6.63
2022-10-21T20:44:02.069Z,6.47
2022-10-21T20:46:34.690Z,5.93
2022-10-21T20:49:07.954Z,6.50
2022-10-21T20:51:38.240Z,6.40
2022-10-21T20:54:09.057Z,6.70
2022-10-21T20:56:40.767Z,6.80
2022-10-21T20:59:11.345Z,6.97
2022-10-21T21:01:44.617Z,6.87
2022-10-21T21:04:14.905Z,6.07
2022-10-21T21:06:45.465Z,6.87
2022-10-21T21:09:37.778Z,6.87
2022-10-21T21:12:04.453Z,8.40
2022-10-21T21:14:33.712Z,7.43
2022-10-21T21:17:01.363Z,7.10
2022-10-21T21:19:29.071Z,6.60
2022-10-21T21:21:56.849Z,7.40
2022-10-21T21:24:24.472Z,7.20
2022-10-21T21:26:52.098Z,7.87
2022-10-21T21:29:19.633Z,7.03
2022-10-21T21:31:47.247Z,7.40
2022-10-21T21:34:40.786Z,6.63
2022-10-21T21:37:08.718Z,7.00
2022-10-21T21:41:48.995Z,6.97
2022-10-21T21:43:02.300Z,7.10
2022-10-21T21:45:30.010Z,6.90
2022-10-21T21:47:57.841Z,7.90
2022-10-21T21:50:25.594Z,7.23
2022-10-21T21:52:53.284Z,6.80
2022-10-21T21:55:21.200Z,8.90
2022-10-21T21:57:49.308Z,11.47
2022-10-21T22:00:16.975Z,15.50
2022-10-21T22:02:44.753Z,13.07
2022-10-21T22:05:12.587Z,7.63
2022-10-21T22:07:40.540Z,8.77
2022-10-21T22:10:08.754Z,8.10
2022-10-21T22:12:38.043Z,7.83
2022-10-21T22:15:13.697Z,7.23
2022-10-21T22:17:49.104Z,6.23
2022-10-21T22:20:19.804Z,6.40
2022-10-21T22:22:48.016Z,6.73
2022-10-21T22:25:18.983Z,11.90
2022-10-21T22:27:46.687Z,11.23
2022-10-21T22:30:16.071Z,9.43
2022-10-21T22:32:43.871Z,9.60
2022-10-21T22:35:13.107Z,9.03
2022-10-21T22:37:43.015Z,8.20
2022-10-21T22:40:11.134Z,6.80
2022-10-21T22:42:38.736Z,6.70
2022-10-21T22:45:07.144Z,6.97
2022-10-21T22:47:34.719Z,6.97
2022-10-21T22:50:02.262Z,6.43
2022-10-21T22:52:30.065Z,6.83
2022-10-21T22:54:57.791Z,6.30
2022-10-21T22:57:25.341Z,6.63
2022-10-21T22:59:53.743Z,6.30
2022-10-21T23:02:21.700Z,6.03
2022-10-21T23:04:49.285Z,6.10
2022-10-21T23:07:16.837Z,6.10
2022-10-21T23:09:44.405Z,6.37
2022-10-21T23:12:11.954Z,5.70
2022-10-21T23:14:39.576Z,5.97
2022-10-21T23:17:07.162Z,5.77
2022-10-21T23:19:34.735Z,6.27
2022-10-21T23:22:02.357Z,6.50
2022-10-21T23:24:29.932Z,8.50
2022-10-21T23:27:00.495Z,6.03
2022-10-21T23:29:30.289Z,6.53
2022-10-21T23:31:57.919Z,6.90
2022-10-21T23:34:25.855Z,6.17
2022-10-21T23:36:53.525Z,6.50
2022-10-21T23:39:21.354Z,6.06
2022-10-21T23:41:52.014Z,6.13
2022-10-21T23:44:19.629Z,6.70
2022-10-21T23:46:47.161Z,5.70
2022-10-21T23:49:14.750Z,7.00
2022-10-21T23:51:42.296Z,7.13
2022-10-21T23:54:12.783Z,6.70
2022-10-21T23:56:40.383Z,7.37
2022-10-21T23:59:07.941Z,6.33
